createdAt,value
2023-01-02T09:24:25.917Z,1000.602417
2023-01-02T09:24:32.964Z,1000.697021
2023-01-02T09:25:35.978Z,1000.815002
2023-01-02T09:26:33.718Z,1000.822021
2023-01-02T09:27:31.216Z,1000.845947
2023-01-02T09:28:32.409Z,1000.871643
2023-01-02T09:29:29.938Z,1000.831726
2023-01-02T09:30:31.061Z,1000.732788
2023-01-02T09:31:30.131Z,1000.831421
2023-01-02T09:33:24.761Z,1000.897522
2023-01-02T09:34:23.053Z,1000.777832
2023-01-02T09:35:19.978Z,1000.816711
2023-01-02T09:36:18.571Z,1000.861572
2023-01-02T09:38:18.818Z,1001.000488
2023-01-02T09:39:15.509Z,1000.990173
2023-01-02T09:40:21.874Z,1001.020935
2023-01-02T09:41:11.715Z,1001.047363
2023-01-02T09:42:07.551Z,1000.996399
2023-01-02T09:43:20.206Z,1000.966003
2023-01-02T09:44:13.693Z,1000.886536
2023-01-02T09:45:09.303Z,1000.943604
2023-01-02T09:46:07.490Z,1000.984192
2023-01-02T09:48:01.276Z,1001.108154
2023-01-02T09:48:56.632Z,1001.075317
2023-01-02T09:49:52.559Z,1001.02655
2023-01-02T09:50:56.682Z,1001.055176
2023-01-02T09:51:07.759Z,1001.091736
2023-01-02T09:53:00.244Z,1001.168762
2023-01-02T09:53:58.447Z,1001.162659
2023-01-02T09:54:57.839Z,1001.150452
2023-01-02T09:56:23.077Z,1001.223572
2023-01-02T09:58:03.460Z,1001.268433
2023-01-02T09:59:04.835Z,1001.26416
2023-01-02T10:00:04.819Z,1001.298584
2023-01-02T10:01:03.976Z,1001.290649
2023-01-02T10:03:05.976Z,1001.371643
2023-01-02T10:03:08.288Z,1001.371643
2023-01-02T10:04:04.357Z,1001.304688
2023-01-02T10:05:00.834Z,1001.434631
2023-01-02T10:06:05.227Z,1001.418274
2023-01-02T10:06:59.520Z,1001.523987
2023-01-02T10:08:01.447Z,1001.481262
2023-01-02T10:08:59.531Z,1001.501587
2023-01-02T10:10:00.641Z,1001.458923
2023-01-02T10:10:56.044Z,1001.521851
2023-01-02T10:12:54.900Z,1001.525757
2023-01-02T10:14:18.895Z,1001.564514
2023-01-02T10:14:53.245Z,1001.576721
2023-01-02T10:15:54.931Z,1001.572815
2023-01-02T10:17:52.827Z,1001.554382
2023-01-02T10:18:50.259Z,1001.55658
2023-01-02T10:19:50.146Z,1001.574707
2023-01-02T10:20:45.159Z,1001.603149
2023-01-02T10:21:44.791Z,1001.647644
2023-01-02T10:22:44.815Z,1001.570618
2023-01-02T10:23:41.355Z,1001.633606
2023-01-02T10:24:47.911Z,1001.556152
2023-01-02T10:25:45.622Z,1001.629211
2023-01-02T10:25:52.753Z,1001.629211
2023-01-02T10:25:53.204Z,1001.629211
2023-01-02T10:26:47.802Z,1001.741028
2023-01-02T10:28:53.964Z,1001.698669
2023-01-02T10:29:47.249Z,1001.761536
2023-01-02T10:30:53.516Z,1001.704529
2023-01-02T10:31:51.441Z,1001.785767
2023-01-02T10:33:44.618Z,1001.775696
2023-01-02T10:35:10.208Z,1001.700439
2023-01-02T10:35:54.128Z,1001.779663
2023-01-02T10:37:51.998Z,1001.83252
2023-01-02T10:38:52.054Z,1001.781494
2023-01-02T10:39:55.783Z,1001.832031
2023-01-02T10:40:56.426Z,1001.75061
2023-01-02T10:42:59.768Z,1001.734375
2023-01-02T10:43:57.792Z,1001.754639
2023-01-02T10:44:53.326Z,1001.764709
2023-01-02T10:45:54.706Z,1001.675476
2023-01-02T10:47:51.137Z,1001.669189
2023-01-02T10:48:52.297Z,1001.652954
2023-01-02T10:49:48.189Z,1001.628723
2023-01-02T10:50:44.757Z,1001.681458
2023-01-02T10:51:43.071Z,1001.707886
2023-01-02T10:52:43.617Z,1001.762512
2023-01-02T10:53:38.795Z,1001.754517
2023-01-02T10:54:48.354Z,1001.711792
2023-01-02T10:54:51.128Z,1001.711792
2023-01-02T10:55:40.172Z,1001.728149
2023-01-02T10:56:43.638Z,1001.71405
2023-01-02T10:57:37.287Z,1001.696045
2023-01-02T10:58:47.990Z,1001.722412
2023-01-02T10:59:45.367Z,1001.766968
2023-01-02T11:00:43.058Z,1001.915222
2023-01-02T11:01:46.656Z,1001.909058
2023-01-02T11:02:43.368Z,1001.779236
2023-01-02T11:03:47.751Z,1001.791077
2023-01-02T11:04:44.869Z,1001.756714
2023-01-02T11:05:46.565Z,1001.819702
2023-01-02T11:06:43.631Z,1001.905029
2023-01-02T11:07:48.102Z,1001.860168
2023-01-02T11:08:44.377Z,1001.872437
2023-01-02T11:09:47.651Z,1001.856079
2023-01-02T11:10:49.229Z,1001.846008
2023-01-02T11:11:18.837Z,1001.846008
2023-01-02T11:13:16.359Z,1001.854553
2023-01-02T11:13:40.624Z,1001.828491
2023-01-02T11:14:45.304Z,1001.859314
2023-01-02T11:15:47.387Z,1001.873413
2023-01-02T11:16:46.432Z,1001.834778
2023-01-02T11:18:55.067Z,1001.885315
2023-01-02T11:20:00.193Z,1001.820251
2023-01-02T11:20:57.385Z,1001.911743
2023-01-02T11:23:04.780Z,1001.996643
2023-01-02T11:24:10.797Z,1001.994385
2023-01-02T11:25:09.949Z,1002.022949
2023-01-02T11:26:12.309Z,1002.006653
2023-01-02T11:28:11.524Z,1002.049377
2023-01-02T11:29:14.060Z,1002.041077
2023-01-02T11:30:14.370Z,1002.059448
2023-01-02T11:31:15.401Z,1002.010559
2023-01-02T11:33:17.499Z,1001.985962
2023-01-02T11:34:14.121Z,1001.984192
2023-01-02T11:35:10.468Z,1002.061279
2023-01-02T11:36:17.226Z,1002.053284
2023-01-02T11:38:16.870Z,1002.173035
2023-01-02T11:39:17.860Z,1002.087646
2023-01-02T11:40:20.478Z,1002.148743
2023-01-02T11:41:22.337Z,1002.21167
2023-01-02T11:42:26.525Z,1002.150574
2023-01-02T11:43:28.649Z,1002.138123
2023-01-02T11:44:28.393Z,1002.158447
2023-01-02T11:45:31.589Z,1002.107666
2023-01-02T11:46:56.536Z,1002.072998
2023-01-02T11:47:38.097Z,1002.008301
2023-01-02T11:48:42.903Z,1002.065186
2023-01-02T11:49:35.787Z,1002.095947
2023-01-02T11:50:35.615Z,1002.073425
2023-01-02T11:51:34.121Z,1002.152649
2023-01-02T11:53:31.762Z,1002.075317
2023-01-02T11:54:31.595Z,1002.091553
2023-01-02T11:55:34.251Z,1002.111816
2023-01-02T11:56:37.710Z,1002.077393
2023-01-02T11:58:34.775Z,1002.122314
2023-01-02T11:59:28.106Z,1002.103882
2023-01-02T12:00:28.078Z,1002.140442
2023-01-02T12:02:51.355Z,1002.038757
2023-01-02T12:03:31.403Z,1002.047119
2023-01-02T12:05:40.634Z,1002.120239
2023-01-02T12:06:17.440Z,1002.063538
2023-01-02T12:07:17.670Z,1002.098267
2023-01-02T12:08:16.125Z,1002.175781
2023-01-02T12:09:21.232Z,1002.121155
2023-01-02T12:12:21.217Z,1002.118958
2023-01-02T12:13:06.723Z,1002.182373
2023-01-02T12:17:48.941Z,1002.353271
2023-01-02T12:17:57.106Z,1002.223999
2023-01-02T12:37:28.351Z,1002.460754
2023-01-02T12:47:33.751Z,1002.647949
2023-01-02T12:52:56.785Z,1002.505493
2023-01-02T13:03:00.300Z,1002.560486
2023-01-02T13:03:25.463Z,1002.541931
2023-01-02T13:04:24.556Z,1002.631653
2023-01-02T13:05:26.921Z,1002.721069
2023-01-02T13:06:44.907Z,1002.719116
2023-01-02T13:06:45.245Z,1002.719116
2023-01-02T13:06:45.477Z,1002.719116
2023-01-02T13:08:19.586Z,1002.627319
2023-01-02T13:10:25.165Z,1002.519714
2023-01-02T13:11:05.304Z,1002.584717
2023-01-02T13:13:06.166Z,1002.58252
2023-01-02T13:22:39.638Z,1002.737366
2023-01-02T13:27:43.161Z,1002.684509
2023-01-02T13:32:52.979Z,1002.651733
2023-01-02T13:38:10.033Z,1002.751465
2023-01-02T13:38:20.110Z,1002.767517
2023-01-02T13:39:22.541Z,1002.783508
2023-01-02T13:40:20.246Z,1002.789856
2023-01-02T13:41:17.134Z,1002.881897
2023-01-02T13:42:18.521Z,1002.906433
2023-01-02T13:43:18.473Z,1002.965149
2023-01-02T13:44:23.389Z,1002.965088
2023-01-02T13:45:17.808Z,1002.960938
2023-01-02T13:46:53.147Z,1002.964905
2023-01-02T13:47:01.013Z,1002.964905
2023-01-02T13:47:01.511Z,1002.964905
2023-01-02T13:47:11.033Z,1003.001221
2023-01-02T13:48:10.455Z,1003.005127
2023-01-02T13:49:05.645Z,1002.972595
2023-01-02T13:50:04.028Z,1003.051514
2023-01-02T13:50:57.561Z,1002.963806
2023-01-02T13:51:56.549Z,1003.05072
2023-01-02T13:52:53.182Z,1002.946716
2023-01-02T13:53:53.616Z,1003.005615
2023-01-02T13:54:52.709Z,1002.966858
2023-01-02T13:55:53.154Z,1002.962524
2023-01-02T13:56:49.507Z,1002.854553
2023-01-02T13:58:45.341Z,1002.908997
2023-01-02T13:59:50.250Z,1002.931335
2023-01-02T14:00:41.767Z,1002.957764
2023-01-02T14:01:40.280Z,1003.081421
2023-01-02T14:02:38.956Z,1003.047058
2023-01-02T14:03:39.698Z,1003.01001
2023-01-02T14:04:33.939Z,1003.081238
2023-01-02T14:05:34.957Z,1003.048584
2023-01-02T14:06:27.248Z,1003.060486
2023-01-02T14:08:28.942Z,1003.123413
2023-01-02T14:09:26.469Z,1003.133423
2023-01-02T14:10:24.280Z,1003.151855
2023-01-02T14:11:17.104Z,1003.054321
2023-01-02T14:13:13.057Z,1003.117188
2023-01-02T14:14:11.198Z,1003.10083
2023-01-02T14:16:17.006Z,1003.129639
2023-01-02T14:16:36.758Z,1003.25
2023-01-02T14:18:32.358Z,1003.285461
2023-01-02T14:19:31.750Z,1003.305603
2023-01-02T14:20:31.836Z,1003.398804
2023-01-02T14:21:31.898Z,1003.437134
2023-01-02T14:23:31.735Z,1003.462708
2023-01-02T14:24:29.494Z,1003.446411
2023-01-02T14:24:30.353Z,1003.446411
2023-01-02T14:25:25.498Z,1003.419983
2023-01-02T14:26:20.764Z,1003.440186
2023-01-02T14:28:14.705Z,1003.464233
2023-01-02T14:29:18.161Z,1003.362488
2023-01-02T14:30:10.707Z,1003.346191
2023-01-02T14:31:09.928Z,1003.354553
2023-01-02T14:32:10.195Z,1003.380859
2023-01-02T14:33:10.018Z,1003.411072
2023-01-02T14:34:07.146Z,1003.477783
2023-01-02T14:35:09.379Z,1003.499695
2023-01-02T14:36:05.270Z,1003.528198
2023-01-02T14:38:04.231Z,1003.560791
2023-01-02T14:39:05.127Z,1003.459045
2023-01-02T14:40:01.201Z,1003.503601
2023-01-02T14:41:02.218Z,1003.460876
2023-01-02T14:43:02.917Z,1003.47467
2023-01-02T14:43:59.144Z,1003.47467
2023-01-02T14:44:58.649Z,1003.425781
2023-01-02T14:45:54.080Z,1003.445923
2023-01-02T14:46:54.897Z,1003.445923
2023-01-02T14:47:48.201Z,1003.419556
2023-01-02T14:48:51.825Z,1003.504944
2023-01-02T14:49:47.623Z,1003.504944
2023-01-02T14:50:48.040Z,1003.515015
2023-01-02T14:51:47.134Z,1003.533447
2023-01-02T14:52:42.192Z,1003.632629
2023-01-02T14:53:51.509Z,1003.715637
2023-01-02T14:54:49.204Z,1003.776428
2023-01-02T14:55:50.071Z,1003.794861
2023-01-02T14:56:45.543Z,1003.822876
2023-01-02T14:58:49.037Z,1003.782288
2023-01-02T14:59:41.565Z,1003.818726
2023-01-02T15:00:45.670Z,1003.783997
2023-01-02T15:01:44.429Z,1003.845093
2023-01-02T15:04:27.148Z,1003.822327
2023-01-02T15:06:44.859Z,1003.874207
2023-01-02T15:08:27.201Z,1003.924927
2023-01-02T15:09:30.694Z,1003.900024
2023-01-02T15:10:27.045Z,1003.867004
2023-01-02T15:11:27.734Z,1003.860168
2023-01-02T15:12:25.078Z,1003.874084
2023-01-02T15:13:23.836Z,1003.928284
2023-01-02T15:14:23.619Z,1003.934082
2023-01-02T15:15:22.805Z,1003.955933
2023-01-02T15:16:18.095Z,1003.917053
2023-01-02T15:17:23.973Z,1004.020935
2023-01-02T15:18:20.147Z,1003.917786
2023-01-02T18:02:09.542Z,1006.256897
2023-01-02T18:03:33.467Z,1006.349548
2023-01-02T18:04:35.992Z,1006.297058
2023-01-02T18:05:31.288Z,1006.383728
2023-01-02T18:06:29.925Z,1006.381104
2023-01-02T18:08:19.966Z,1006.426575
2023-01-02T18:09:11.898Z,1006.432251
2023-01-02T18:10:12.569Z,1006.521423
2023-01-02T18:10:19.413Z,1006.521423
2023-01-02T18:10:20.776Z,1006.521423
2023-01-02T18:11:05.837Z,1006.470459
2023-01-02T18:11:58.395Z,1006.536011
2023-01-02T18:13:50.629Z,1006.607483
2023-01-02T18:14:47.319Z,1006.642944
2023-01-02T18:15:48.530Z,1006.634033
2023-01-02T18:16:49.727Z,1006.638306
2023-01-02T18:18:36.895Z,1006.738464
2023-01-02T18:19:29.635Z,1006.743408
2023-01-02T18:20:28.081Z,1006.752319
2023-01-02T18:21:23.738Z,1006.750916
2023-01-02T18:23:12.309Z,1006.787659
2023-01-02T18:24:07.193Z,1006.807495
2023-01-02T18:25:04.193Z,1006.839233
2023-01-02T18:26:10.916Z,1006.757202
2023-01-02T18:27:00.433Z,1006.829712
2023-01-02T18:28:01.734Z,1006.82312
2023-01-02T18:29:09.812Z,1006.782043
2023-01-02T18:29:10.233Z,1006.782043
2023-01-02T18:30:02.863Z,1006.791931
2023-01-02T18:30:55.396Z,1006.793823
2023-01-02T18:31:58.256Z,1006.769043
2023-01-02T18:32:48.831Z,1006.892639
2023-01-02T18:33:44.519Z,1006.867798
2023-01-02T18:34:48.203Z,1006.77594
2023-01-02T18:34:50.304Z,1006.77594
2023-01-02T18:35:58.069Z,1006.892944
2023-01-02T18:35:58.818Z,1006.892944
2023-01-02T18:36:42.707Z,1006.915833
2023-01-02T18:37:43.864Z,1006.987976
2023-01-02T18:38:40.309Z,1007.050476
2023-01-02T18:39:32.735Z,1007.098206
2023-01-02T18:40:34.898Z,1007.0672
2023-01-02T18:41:27.360Z,1007.088623
2023-01-02T18:43:18.458Z,1007.147949
2023-01-02T18:44:13.146Z,1007.097168
2023-01-02T18:45:12.044Z,1007.143372
2023-01-02T18:46:09.891Z,1007.110474
2023-01-02T18:47:09.455Z,1007.131897
2023-01-02T18:47:59.522Z,1007.107361
2023-01-02T18:48:59.354Z,1007.089111
2023-01-02T18:50:03.557Z,1007.133667
2023-01-02T18:51:02.814Z,1007.09906
2023-01-02T18:51:52.529Z,1007.133667
2023-01-02T18:53:29.327Z,1007.181091
2023-01-02T18:54:09.529Z,1007.202515
2023-01-02T18:55:12.943Z,1007.190796
2023-01-02T18:56:09.256Z,1007.271545
2023-01-02T18:57:08.521Z,1007.256653
2023-01-02T18:58:12.145Z,1007.223755
2023-01-02T18:59:06.429Z,1007.227173
2023-01-02T19:00:05.806Z,1007.25531
2023-01-02T19:01:01.502Z,1007.283142
2023-01-02T19:03:00.044Z,1007.304749
2023-01-02T19:04:00.411Z,1007.365479
2023-01-02T19:05:00.172Z,1007.34906
2023-01-02T19:05:55.041Z,1007.429749
2023-01-02T19:06:55.985Z,1007.368774
2023-01-02T19:07:54.269Z,1007.360779
2023-01-02T19:08:56.256Z,1007.387024
2023-01-02T19:09:52.637Z,1007.380493
2023-01-02T19:10:53.405Z,1007.398438
2023-01-02T19:11:49.793Z,1007.423279
2023-01-02T19:12:52.623Z,1007.380493
2023-01-02T19:13:55.214Z,1007.479248
2023-01-02T19:13:58.743Z,1007.479248
2023-01-02T19:14:48.271Z,1007.467529
2023-01-02T19:15:47.564Z,1007.508667
2023-01-02T19:16:44.135Z,1007.525146
2023-01-02T19:17:47.524Z,1007.595642
2023-01-02T19:18:44.228Z,1007.633606
2023-01-02T19:19:43.741Z,1007.610718
2023-01-02T19:20:38.182Z,1007.612183
2023-01-02T19:21:39.530Z,1007.587646
2023-01-02T19:23:36.731Z,1007.605652
2023-01-02T19:24:29.097Z,1007.571228
2023-01-02T19:26:19.547Z,1007.587585
2023-01-02T19:28:14.026Z,1007.713135
2023-01-02T19:29:10.654Z,1007.652161
2023-01-02T19:30:18.989Z,1007.696411
2023-01-02T19:30:20.925Z,1007.696411
2023-01-02T19:31:10.993Z,1007.709717
2023-01-02T19:32:08.069Z,1007.706543
2023-01-02T19:33:08.930Z,1007.711853
2023-01-02T19:34:05.690Z,1007.813904
2023-01-02T19:35:06.011Z,1007.807373
2023-01-02T19:36:01.325Z,1007.861572
2023-01-02T19:38:00.155Z,1007.824036
2023-01-02T19:38:59.249Z,1007.851868
2023-01-02T19:39:55.236Z,1007.888062
2023-01-02T19:40:54.387Z,1007.970337
2023-01-02T19:41:50.835Z,1008.059082
2023-01-02T19:42:50.657Z,1007.972168
2023-01-02T19:43:46.033Z,1007.980164
2023-01-02T19:44:49.092Z,1007.973572
2023-01-02T19:45:44.549Z,1008.028137
2023-01-02T19:46:46.667Z,1008.037964
2023-01-02T19:47:39.202Z,1008.036072
2023-01-02T19:48:40.343Z,1008.021545
2023-01-02T19:49:35.727Z,1008.097168
2023-01-02T19:50:36.962Z,1008.088745
2023-01-02T19:51:29.795Z,1008.174194
2023-01-02T19:52:31.568Z,1008.15448
2023-01-02T19:53:24.086Z,1008.268127
2023-01-02T19:54:27.496Z,1008.15448
2023-01-02T19:55:19.829Z,1008.223511
2023-01-02T19:56:20.013Z,1008.325439
2023-01-02T19:58:23.463Z,1008.16272
2023-01-02T19:59:19.625Z,1008.276001
2023-01-02T20:00:21.600Z,1008.274536
2023-01-02T20:01:14.283Z,1008.274536
2023-01-02T20:03:12.665Z,1008.264587
2023-01-02T20:04:21.048Z,1008.333679
2023-01-02T20:05:22.644Z,1008.351563
2023-01-02T20:06:20.124Z,1008.361572
2023-01-02T20:07:16.620Z,1008.392822
2023-01-02T20:08:14.173Z,1008.351563
2023-01-02T20:09:15.581Z,1008.337036
2023-01-02T20:10:12.398Z,1008.397644
2023-01-02T20:11:16.868Z,1008.466736
2023-01-02T20:12:08.752Z,1008.491577
2023-01-02T20:13:13.023Z,1008.445496
2023-01-02T20:14:05.415Z,1008.478333
2023-01-02T20:15:07.547Z,1008.460083
2023-01-02T20:16:04.633Z,1008.512634
2023-01-02T20:18:22.641Z,1008.440186
2023-01-02T20:19:19.782Z,1008.497192
2023-01-02T20:20:18.551Z,1008.46344
2023-01-02T20:21:18.574Z,1008.448181
2023-01-02T20:23:16.566Z,1008.465027
2023-01-02T20:24:11.816Z,1008.531006
2023-01-02T20:25:12.858Z,1008.556091
2023-01-02T20:26:08.971Z,1008.623596
2023-01-02T20:28:05.405Z,1008.615784
2023-01-02T20:29:04.798Z,1008.546692
2023-01-02T20:30:03.816Z,1008.576416
2023-01-02T20:30:59.016Z,1008.50885
2023-01-02T20:32:00.277Z,1008.607666
2023-01-02T20:32:52.650Z,1008.643921
2023-01-02T20:33:54.355Z,1008.670166
2023-01-02T20:34:47.116Z,1008.680054
2023-01-02T20:35:49.016Z,1008.680054
2023-01-02T20:36:45.893Z,1008.777344
2023-01-02T20:37:46.830Z,1008.706421
2023-01-02T20:38:52.707Z,1008.775452
2023-01-02T20:39:54.980Z,1008.731262
2023-01-02T20:40:49.319Z,1008.7854
2023-01-02T20:41:51.100Z,1008.7854
2023-01-02T20:42:48.938Z,1008.83313
2023-01-02T20:43:50.099Z,1008.824829
2023-01-02T20:44:44.446Z,1008.800293
2023-01-02T20:45:46.678Z,1008.820068
2023-01-02T20:46:38.629Z,1008.84967
2023-01-02T20:47:39.995Z,1008.857788
2023-01-02T20:48:38.214Z,1008.831482
2023-01-02T20:49:40.111Z,1008.913757
2023-01-02T20:50:34.437Z,1008.903931
2023-01-02T20:51:37.058Z,1008.894043
2023-01-02T20:53:36.317Z,1008.897217
2023-01-02T20:54:39.075Z,1008.890625
2023-01-02T20:55:36.671Z,1008.951721
2023-01-02T20:56:36.651Z,1008.951721
2023-01-02T20:57:33.057Z,1008.979553
2023-01-02T20:58:34.242Z,1009.019043
2023-01-02T20:59:28.901Z,1009.030762
2023-01-02T21:00:30.882Z,1009.055298
2023-01-02T21:01:26.803Z,1009.096558
2023-01-02T21:02:25.849Z,1009.103149
2023-01-02T21:03:24.871Z,1009.104614
2023-01-02T21:05:26.207Z,1009.170288
2023-01-02T21:05:53.996Z,1009.099609
2023-01-02T21:06:57.491Z,1009.202942
2023-01-02T21:08:55.795Z,1009.196411
2023-01-02T21:09:53.989Z,1009.311646
2023-01-02T21:10:48.415Z,1009.181885
2023-01-02T21:11:48.052Z,1009.191711
2023-01-02T21:12:44.436Z,1009.288696
2023-01-02T21:13:45.904Z,1009.298584
2023-01-02T21:14:43.204Z,1009.293823
2023-01-02T21:15:42.664Z,1009.333435
2023-01-02T21:16:54.728Z,1009.325012
2023-01-02T21:17:56.618Z,1009.274231
2023-01-02T21:18:48.664Z,1009.379517
2023-01-02T21:19:50.832Z,1009.308594
2023-01-02T21:20:47.631Z,1009.363037
2023-01-02T21:21:42.964Z,1009.363037
2023-01-02T21:23:41.101Z,1009.387512
2023-01-02T21:24:40.534Z,1009.442017
2023-01-02T21:25:34.910Z,1009.451904
2023-01-02T21:26:35.302Z,1009.517822
2023-01-02T21:28:32.759Z,1009.529114
2023-01-02T21:29:25.420Z,1009.461853
2023-01-02T21:30:37.282Z,1009.535767
2023-01-02T21:31:40.471Z,1009.501404
2023-01-02T21:32:37.809Z,1009.525879
2023-01-02T21:33:37.827Z,1009.517822
2023-01-02T21:34:38.084Z,1009.466614
2023-01-02T21:36:30.297Z,1009.481567
2023-01-02T21:36:50.638Z,1009.481567
2023-01-02T21:37:49.831Z,1009.494507
2023-01-02T21:38:56.802Z,1009.586731
2023-01-02T21:39:54.980Z,1009.527527
2023-01-02T21:40:55.315Z,1009.598145
2023-01-02T21:41:55.885Z,1009.660767
2023-01-02T21:43:51.414Z,1009.568604
2023-01-02T21:44:54.155Z,1009.563843
2023-01-02T21:45:46.999Z,1009.521118
2023-01-02T21:46:50.574Z,1009.616455
2023-01-02T21:48:51.892Z,1009.552185
2023-01-02T21:49:48.692Z,1009.604858
2023-01-02T21:50:51.121Z,1009.57843
2023-01-02T21:51:43.485Z,1009.577026
2023-01-02T21:53:41.473Z,1009.581787
2023-01-02T21:54:36.232Z,1009.565308
2023-01-02T21:55:35.736Z,1009.63446
2023-01-02T21:56:34.685Z,1009.627808
2023-01-02T21:58:02.737Z,1009.662598
2023-01-02T21:58:11.119Z,1009.662598
2023-01-02T21:58:11.474Z,1009.662598
2023-01-02T21:58:33.524Z,1009.616455
2023-01-02T21:59:32.986Z,1009.690308
2023-01-02T22:00:28.336Z,1009.6297
2023-01-02T22:01:29.047Z,1009.603271
2023-01-02T22:02:32.813Z,1009.560547
2023-01-02T22:02:36.759Z,1009.560547
2023-01-02T22:02:38.669Z,1009.560547
2023-01-02T22:03:25.959Z,1009.688904
2023-01-02T22:04:22.275Z,1009.677185
2023-01-02T22:05:21.852Z,1009.678955
2023-01-02T22:06:19.538Z,1009.726563
2023-01-02T22:08:18.736Z,1009.672485
2023-01-02T22:09:17.981Z,1009.631165
2023-01-02T22:10:18.499Z,1009.657471
2023-01-02T22:11:20.689Z,1009.660767
2023-01-02T22:12:15.890Z,1009.708618
2023-01-02T22:13:19.268Z,1009.687134
2023-01-02T22:14:12.222Z,1009.751404
2023-01-02T22:15:22.873Z,1009.756104
2023-01-02T22:16:20.850Z,1009.836853
2023-01-02T22:18:18.797Z,1009.882874
2023-01-02T22:19:22.891Z,1009.866394
2023-01-02T22:20:22.915Z,1009.894226
2023-01-02T22:21:22.082Z,1009.955261
2023-01-02T22:23:49.353Z,1009.984741
2023-01-02T22:24:39.128Z,1009.986267
2023-01-02T22:24:44.253Z,1009.986267
2023-01-02T22:24:44.988Z,1009.986267
2023-01-02T22:25:35.553Z,1010.060486
2023-01-02T22:26:33.007Z,1010.142822
2023-01-02T22:27:39.242Z,1010.035767
2023-01-02T22:28:38.648Z,1010.073669
2023-01-02T22:30:18.645Z,1010.014465
2023-01-02T22:30:20.495Z,1010.014465
2023-01-02T22:30:42.367Z,1010.047363
2023-01-02T22:31:41.666Z,1010.011169
2023-01-02T22:32:54.566Z,1010.011169
2023-01-02T22:33:57.814Z,1010.002808
2023-01-02T22:34:53.158Z,1010.012634
2023-01-02T22:35:54.975Z,1010.024292
2023-01-02T22:36:57.828Z,1010.044006
2023-01-02T22:39:27.551Z,1010.076782
2023-01-02T22:39:28.080Z,1010.076782
2023-01-02T22:39:29.557Z,1010.076782
2023-01-02T22:40:08.119Z,1010.17688
2023-01-02T22:41:08.015Z,1010.076782
2023-01-02T22:42:03.166Z,1010.178772
2023-01-02T22:43:06.312Z,1010.178772
2023-01-02T22:44:02.832Z,1010.201721
2023-01-02T22:45:03.861Z,1010.17688
2023-01-02T22:46:00.490Z,1010.308411
2023-01-02T22:47:04.544Z,1010.268799
2023-01-02T22:49:04.249Z,1010.319824
2023-01-02T22:50:11.810Z,1010.411743
2023-01-02T22:50:12.513Z,1010.411743
2023-01-02T22:51:07.247Z,1010.446106
2023-01-02T22:53:13.420Z,1010.472412
2023-01-02T22:54:14.499Z,1010.401855
2023-01-02T22:55:10.251Z,1010.45282
2023-01-02T22:56:07.646Z,1010.461121
2023-01-02T22:58:06.290Z,1010.541504
2023-01-02T22:59:11.652Z,1010.482178
2023-01-02T23:00:06.933Z,1010.503601
2023-01-02T23:01:23.662Z,1010.44928
2023-01-02T23:03:18.446Z,1010.475647
2023-01-02T23:04:13.259Z,1010.444397
2023-01-02T23:05:15.319Z,1010.365479
2023-01-02T23:06:18.456Z,1010.365479
2023-01-02T23:06:22.237Z,1010.365479
2023-01-02T23:09:04.531Z,1010.410217
2023-01-02T23:10:06.180Z,1010.35437
2023-01-02T23:11:02.813Z,1010.415405
2023-01-02T23:12:04.021Z,1010.438293
2023-01-02T23:14:02.636Z,1010.538269
2023-01-02T23:14:57.350Z,1010.539978
2023-01-02T23:16:30.200Z,1010.56311
2023-01-02T23:18:08.880Z,1010.439697
2023-01-02T23:19:07.476Z,1010.513733
2023-01-02T23:20:02.968Z,1010.525024
2023-01-02T23:21:02.574Z,1010.546387
2023-01-02T23:22:00.636Z,1010.54126
2023-01-02T23:23:59.918Z,1010.580444
2023-01-02T23:24:59.032Z,1010.654541
2023-01-02T23:25:55.530Z,1010.655945
2023-01-02T23:27:01.697Z,1010.624695
2023-01-02T23:29:08.000Z,1010.53595
2023-01-02T23:29:09.118Z,1010.53595
2023-01-02T23:29:56.696Z,1010.690613
2023-01-02T23:30:57.918Z,1010.619751
2023-01-02T23:32:00.569Z,1010.611694
2023-01-02T23:34:02.107Z,1010.596619
2023-01-02T23:34:57.340Z,1010.558777
2023-01-02T23:35:56.375Z,1010.525757
2023-01-02T23:36:51.619Z,1010.579834
2023-01-02T23:38:51.461Z,1010.574829
2023-01-02T23:39:52.858Z,1010.635559
2023-01-02T23:40:48.074Z,1010.638672
2023-01-02T23:41:50.748Z,1010.707764
2023-01-02T23:43:54.851Z,1010.635559
2023-01-02T23:44:49.338Z,1010.617676
2023-01-02T23:46:01.311Z,1010.634155
2023-01-02T23:46:57.226Z,1010.678284
2023-01-02T23:48:52.332Z,1010.598022
2023-01-02T23:49:58.888Z,1010.56189
2023-01-02T23:50:52.753Z,1010.604675
2023-01-02T23:51:54.663Z,1010.545471
2023-01-02T23:52:47.521Z,1010.553589
2023-01-02T23:53:50.211Z,1010.502686
2023-01-02T23:54:42.753Z,1010.487671
2023-01-02T23:55:49.979Z,1010.502686
2023-01-02T23:56:42.553Z,1010.540161
2023-01-02T23:57:41.941Z,1010.515625
2023-01-02T23:59:31.327Z,1010.620789
2023-01-02T23:59:53.407Z,1010.582947
